createdAt,value
2022-09-18T00:01:36.967Z,100.00
2022-09-18T00:04:09.183Z,100.00
2022-09-18T00:06:41.119Z,100.00
2022-09-18T00:09:14.634Z,100.00
2022-09-18T00:11:48.140Z,100.00
2022-09-18T00:14:22.621Z,100.00
2022-09-18T00:16:50.937Z,100.00
2022-09-18T00:19:19.218Z,100.00
2022-09-18T00:21:51.239Z,100.00
2022-09-18T00:24:28.919Z,100.00
2022-09-18T00:26:55.972Z,100.00
2022-09-18T00:29:23.053Z,100.00
2022-09-18T00:31:50.113Z,100.00
2022-09-18T00:34:17.474Z,100.00
2022-09-18T00:36:45.191Z,100.00
2022-09-18T00:39:12.978Z,100.00
2022-09-18T00:41:44.322Z,100.00
2022-09-18T00:44:42.802Z,100.00
2022-09-18T00:47:33.835Z,100.00
2022-09-18T00:50:12.727Z,100.00
2022-09-18T00:52:57.074Z,100.00
2022-09-18T00:55:40.315Z,100.00
2022-09-18T00:58:08.393Z,100.00
2022-09-18T01:00:38.337Z,100.00
2022-09-18T01:03:06.276Z,100.00
2022-09-18T01:06:14.915Z,100.00
2022-09-18T01:09:42.767Z,100.00
2022-09-18T01:12:43.048Z,100.00
2022-09-18T01:15:30.004Z,100.00
2022-09-18T01:18:57.038Z,100.00
2022-09-18T01:22:04.018Z,100.00
2022-09-18T01:25:11.947Z,100.00
2022-09-18T01:27:41.758Z,100.00
2022-09-18T01:30:13.381Z,100.00
2022-09-18T01:32:55.430Z,100.00
2022-09-18T01:35:41.950Z,100.00
2022-09-18T01:38:29.686Z,100.00
2022-09-18T01:41:16.537Z,100.00
2022-09-18T01:43:59.362Z,100.00
2022-09-18T01:46:26.740Z,100.00
2022-09-18T01:49:12.703Z,100.00
2022-09-18T01:52:23.548Z,100.00
2022-09-18T01:54:57.321Z,100.00
2022-09-18T01:58:08.899Z,100.00
2022-09-18T02:00:52.957Z,100.00
2022-09-18T02:03:31.409Z,100.00
2022-09-18T02:06:16.649Z,100.00
2022-09-18T02:08:56.384Z,100.00
2022-09-18T02:11:24.418Z,100.00
2022-09-18T02:14:05.636Z,100.00
2022-09-18T02:17:05.856Z,100.00
2022-09-18T02:20:21.993Z,100.00
2022-09-18T02:22:58.020Z,100.00
2022-09-18T02:25:41.666Z,100.00
2022-09-18T02:28:16.668Z,100.00
2022-09-18T02:30:44.603Z,100.00
2022-09-18T02:33:34.768Z,100.00
2022-09-18T02:36:43.491Z,100.00
2022-09-18T02:39:31.383Z,100.00
2022-09-18T02:42:48.012Z,100.00
2022-09-18T02:45:43.826Z,100.00
2022-09-18T02:49:09.969Z,100.00
2022-09-18T02:52:18.346Z,100.00
2022-09-18T02:54:57.949Z,100.00
2022-09-18T02:57:40.439Z,100.00
2022-09-18T03:00:15.464Z,100.00
2022-09-18T03:02:43.794Z,100.00
2022-09-18T03:05:12.403Z,100.00
2022-09-18T03:07:40.078Z,100.00
2022-09-18T03:10:07.536Z,100.00
2022-09-18T03:12:34.589Z,100.00
2022-09-18T03:15:01.739Z,100.00
2022-09-18T03:17:28.895Z,100.00
2022-09-18T03:19:55.925Z,100.00
2022-09-18T03:22:22.978Z,100.00
2022-09-18T03:24:50.100Z,100.00
2022-09-18T03:27:18.571Z,100.00
2022-09-18T03:29:45.684Z,100.00
2022-09-18T03:32:13.001Z,100.00
2022-09-18T03:34:40.313Z,100.00
2022-09-18T03:37:07.287Z,100.00
2022-09-18T03:39:34.254Z,100.00
2022-09-18T03:42:04.265Z,100.00
2022-09-18T03:44:31.260Z,100.00
2022-09-18T03:46:58.407Z,100.00
2022-09-18T03:49:26.659Z,100.00
2022-09-18T03:51:53.628Z,100.00
2022-09-18T03:54:20.612Z,100.00
2022-09-18T03:56:51.638Z,100.00
2022-09-18T03:59:18.668Z,100.00
2022-09-18T04:01:45.701Z,100.00
2022-09-18T04:04:13.326Z,100.00
2022-09-18T04:06:40.276Z,100.00
2022-09-18T04:09:07.732Z,100.00
2022-09-18T04:11:34.723Z,100.00
2022-09-18T04:14:01.855Z,100.00
2022-09-18T04:16:28.906Z,100.00
2022-09-18T04:18:56.186Z,100.00
2022-09-18T04:21:23.123Z,100.00
2022-09-18T04:23:50.122Z,100.00
2022-09-18T04:26:17.243Z,100.00
2022-09-18T04:28:44.335Z,100.00
2022-09-18T04:31:11.482Z,100.00
2022-09-18T04:33:38.710Z,100.00
2022-09-18T04:36:05.994Z,100.00
2022-09-18T04:38:33.855Z,100.00
2022-09-18T04:41:01.711Z,100.00
2022-09-18T04:43:29.255Z,100.00
2022-09-18T04:45:56.702Z,100.00
2022-09-18T04:48:24.195Z,100.00
2022-09-18T04:50:51.570Z,100.00
2022-09-18T04:53:20.183Z,100.00
2022-09-18T04:55:49.330Z,100.00
2022-09-18T04:58:18.828Z,100.00
2022-09-18T05:00:50.757Z,100.00
2022-09-18T05:03:19.489Z,100.00
2022-09-18T05:05:46.632Z,100.00
2022-09-18T05:08:13.763Z,100.00
2022-09-18T05:10:42.997Z,100.00
2022-09-18T05:13:10.468Z,100.00
2022-09-18T05:15:37.680Z,100.00
2022-09-18T05:18:11.543Z,100.00
2022-09-18T05:20:39.871Z,100.00
2022-09-18T05:23:07.220Z,100.00
2022-09-18T05:25:34.164Z,100.00
2022-09-18T05:28:03.973Z,100.00
2022-09-18T05:30:32.653Z,100.00
2022-09-18T05:33:07.693Z,100.00
2022-09-18T05:35:37.475Z,100.00
2022-09-18T05:38:04.957Z,100.00
2022-09-18T05:40:38.221Z,100.00
2022-09-18T05:43:07.403Z,100.00
2022-09-18T05:45:35.417Z,100.00
2022-09-18T05:48:05.903Z,100.00
2022-09-18T05:50:36.490Z,100.00
2022-09-18T05:53:08.099Z,100.00
2022-09-18T05:55:35.431Z,100.00
2022-09-18T05:58:06.506Z,100.00
2022-09-18T06:00:36.279Z,100.00
2022-09-18T06:03:09.603Z,100.00
2022-09-18T06:05:38.774Z,100.00
2022-09-18T06:08:12.033Z,100.00
2022-09-18T06:10:41.245Z,100.00
2022-09-18T06:13:15.690Z,100.00
2022-09-18T06:15:49.610Z,100.00
2022-09-18T06:18:16.815Z,100.00
2022-09-18T06:20:56.747Z,100.00
2022-09-18T06:23:27.836Z,100.00
2022-09-18T06:26:15.176Z,100.00
2022-09-18T06:28:42.274Z,100.00
2022-09-18T06:31:10.917Z,100.00
2022-09-18T06:33:37.905Z,100.00
2022-09-18T06:36:09.003Z,100.00
2022-09-18T06:38:36.082Z,100.00
2022-09-18T06:41:03.098Z,100.00
2022-09-18T06:43:30.160Z,100.00
2022-09-18T06:45:58.611Z,100.00
2022-09-18T06:48:26.956Z,100.00
2022-09-18T06:50:57.771Z,100.00
2022-09-18T06:53:26.826Z,100.00
2022-09-18T06:55:59.827Z,100.00
2022-09-18T06:58:26.916Z,100.00
2022-09-18T07:00:54.156Z,100.00
2022-09-18T07:03:21.335Z,100.00
2022-09-18T07:05:48.260Z,100.00
2022-09-18T07:08:15.225Z,100.00
2022-09-18T07:10:43.031Z,100.00
2022-09-18T07:13:10.150Z,100.00
2022-09-18T07:15:37.178Z,100.00
2022-09-18T07:18:08.043Z,100.00
2022-09-18T07:20:35.357Z,100.00
2022-09-18T07:23:03.842Z,100.00
2022-09-18T07:25:34.620Z,100.00
2022-09-18T07:28:08.692Z,100.00
2022-09-18T07:30:37.867Z,100.00
2022-09-18T07:33:08.754Z,100.00
2022-09-18T07:35:36.453Z,100.00
2022-09-18T07:38:06.673Z,100.00
2022-09-18T07:40:34.990Z,100.00
2022-09-18T07:43:06.738Z,100.00
2022-09-18T07:45:35.306Z,100.00
2022-09-18T07:48:06.459Z,100.00
2022-09-18T07:50:34.523Z,100.00
2022-09-18T07:53:03.738Z,100.00
2022-09-18T07:55:31.790Z,100.00
2022-09-18T07:58:05.016Z,100.00
2022-09-18T08:00:37.327Z,100.00
2022-09-18T08:03:13.650Z,100.00
2022-09-18T08:05:42.308Z,100.00
2022-09-18T08:08:15.749Z,100.00
2022-09-18T08:10:45.268Z,100.00
2022-09-18T08:13:13.289Z,100.00
2022-09-18T08:15:43.145Z,100.00
2022-09-18T08:18:11.731Z,100.00
2022-09-18T08:20:39.139Z,100.00
2022-09-18T08:23:09.342Z,100.00
2022-09-18T08:25:37.340Z,100.00
2022-09-18T08:28:07.158Z,100.00
2022-09-18T08:30:48.044Z,100.00
2022-09-18T08:33:15.065Z,99.40
2022-09-18T08:35:42.833Z,99.89
2022-09-18T08:38:11.990Z,100.00
2022-09-18T08:41:44.900Z,100.00
2022-09-18T08:44:25.602Z,97.90
2022-09-18T08:47:18.792Z,95.69
2022-09-18T08:50:06.464Z,97.44
2022-09-18T08:52:45.658Z,92.22
2022-09-18T08:55:36.494Z,95.93
2022-09-18T08:58:14.481Z,92.55
2022-09-18T09:00:52.511Z,93.47
2022-09-18T09:03:47.023Z,96.74
2022-09-18T09:06:43.218Z,95.14
2022-09-18T09:09:57.580Z,92.35
2022-09-18T09:13:22.326Z,96.58
2022-09-18T09:16:59.536Z,92.95
2022-09-18T09:19:53.930Z,94.58
2022-09-18T09:23:03.301Z,88.83
2022-09-18T09:25:50.496Z,89.84
2022-09-18T09:28:34.050Z,90.09
2022-09-18T09:31:09.850Z,90.08
2022-09-18T09:34:00.595Z,85.53
2022-09-18T09:36:36.922Z,84.05
2022-09-18T09:39:29.694Z,83.18
2022-09-18T09:42:21.995Z,82.90
2022-09-18T09:45:14.299Z,83.36
2022-09-18T09:47:57.676Z,79.45
2022-09-18T09:50:49.527Z,80.91
2022-09-18T09:53:16.564Z,78.99
2022-09-18T09:56:09.713Z,78.70
2022-09-18T09:59:30.776Z,82.04
2022-09-18T10:02:32.683Z,85.97
2022-09-18T10:05:32.278Z,89.15
2022-09-18T10:08:40.296Z,86.50
2022-09-18T10:11:11.471Z,89.57
2022-09-18T10:13:58.647Z,92.97
2022-09-18T10:16:45.089Z,95.16
2022-09-18T10:19:20.952Z,100.00
2022-09-18T10:21:54.640Z,100.00
2022-09-18T10:24:44.422Z,100.00
2022-09-18T10:27:16.013Z,100.00
2022-09-18T10:29:43.914Z,100.00
2022-09-18T10:32:12.934Z,100.00
2022-09-18T10:34:50.227Z,94.02
2022-09-18T10:37:40.816Z,91.86
2022-09-18T10:40:40.148Z,93.46
2022-09-18T10:43:17.551Z,83.96
2022-09-18T10:45:56.202Z,86.93
2022-09-18T10:48:26.759Z,85.25
2022-09-18T10:51:01.297Z,87.13
2022-09-18T10:53:42.609Z,87.74
2022-09-18T10:56:21.579Z,86.38
2022-09-18T10:58:48.582Z,89.60
2022-09-18T11:01:16.378Z,88.33
2022-09-18T11:04:03.328Z,86.78
2022-09-18T11:06:37.432Z,84.20
2022-09-18T11:09:11.369Z,83.34
2022-09-18T11:11:50.309Z,81.20
2022-09-18T11:14:30.286Z,78.42
2022-09-18T11:17:03.946Z,77.60
2022-09-18T11:19:39.564Z,74.07
2022-09-18T11:22:44.685Z,79.59
2022-09-18T11:25:14.926Z,75.15
2022-09-18T11:27:59.264Z,75.69
2022-09-18T11:30:31.841Z,70.48
2022-09-18T11:33:26.217Z,73.21
2022-09-18T11:36:07.723Z,72.06
2022-09-18T11:38:44.974Z,77.43
2022-09-18T11:41:22.808Z,84.53
2022-09-18T11:44:04.532Z,92.82
2022-09-18T11:47:39.038Z,92.07
2022-09-18T11:50:23.876Z,95.42
2022-09-18T11:53:06.419Z,94.26
2022-09-18T11:55:55.353Z,96.88
2022-09-18T11:58:31.857Z,100.00
2022-09-18T12:01:37.471Z,95.80
2022-09-18T12:04:52.584Z,94.30
2022-09-18T12:08:04.672Z,95.38
2022-09-18T12:11:02.535Z,91.78
2022-09-18T12:14:37.188Z,94.38
2022-09-18T12:17:36.941Z,89.28
2022-09-18T12:20:37.192Z,92.63
2022-09-18T12:23:04.887Z,83.22
2022-09-18T12:26:16.006Z,81.56
2022-09-18T12:29:13.567Z,82.83
2022-09-18T12:32:01.012Z,85.00
2022-09-18T12:34:49.806Z,89.90
2022-09-18T12:37:52.937Z,96.91
2022-09-18T12:41:01.121Z,100.00
2022-09-18T12:44:28.639Z,100.00
2022-09-18T12:47:38.592Z,100.00
2022-09-18T12:51:10.999Z,100.00
2022-09-18T12:54:13.238Z,100.00
2022-09-18T12:57:17.144Z,100.00
2022-09-18T13:00:12.703Z,100.00
2022-09-18T13:03:15.598Z,100.00
2022-09-18T13:06:01.620Z,100.00
2022-09-18T13:08:52.766Z,100.00
2022-09-18T13:11:59.371Z,100.00
2022-09-18T13:14:42.881Z,100.00
2022-09-18T13:17:33.088Z,100.00
2022-09-18T13:20:24.909Z,100.00
2022-09-18T13:22:55.569Z,100.00
2022-09-18T13:25:38.146Z,100.00
2022-09-18T13:28:17.055Z,100.00
2022-09-18T13:30:46.894Z,100.00
2022-09-18T13:33:27.619Z,100.00
2022-09-18T13:35:58.728Z,100.00
2022-09-18T13:38:29.919Z,100.00
2022-09-18T13:41:08.199Z,100.00
2022-09-18T13:43:51.867Z,100.00
2022-09-18T13:46:40.148Z,100.00
2022-09-18T13:49:28.930Z,100.00
2022-09-18T13:52:34.965Z,100.00
2022-09-18T13:55:13.955Z,100.00
2022-09-18T13:57:44.043Z,100.00
2022-09-18T14:00:20.413Z,100.00
2022-09-18T14:03:12.219Z,100.00
2022-09-18T14:05:42.833Z,100.00
2022-09-18T14:08:18.890Z,100.00
2022-09-18T14:11:11.639Z,100.00
2022-09-18T14:13:58.367Z,100.00
2022-09-18T14:16:40.967Z,100.00
2022-09-18T14:19:31.903Z,100.00
2022-09-18T14:22:01.908Z,100.00
2022-09-18T14:24:51.220Z,100.00
2022-09-18T14:27:39.365Z,100.00
2022-09-18T14:30:31.404Z,100.00
2022-09-18T14:33:08.408Z,100.00
2022-09-18T14:36:04.908Z,100.00
2022-09-18T14:38:40.137Z,100.00
2022-09-18T14:41:24.844Z,100.00
2022-09-18T14:44:06.383Z,100.00
2022-09-18T14:46:33.981Z,100.00
2022-09-18T14:49:03.106Z,100.00
2022-09-18T14:51:44.758Z,100.00
2022-09-18T14:54:25.434Z,100.00
2022-09-18T14:57:02.568Z,100.00
2022-09-18T14:59:31.356Z,100.00
2022-09-18T15:02:32.661Z,100.00
2022-09-18T15:05:10.535Z,100.00
2022-09-18T15:07:40.093Z,100.00
2022-09-18T15:10:10.223Z,100.00
2022-09-18T15:12:39.948Z,100.00
2022-09-18T15:15:28.823Z,92.20
2022-09-18T15:17:57.323Z,87.64
2022-09-18T15:20:27.647Z,84.49
2022-09-18T15:22:56.897Z,81.68
2022-09-18T15:25:42.293Z,83.20
2022-09-18T15:28:11.663Z,84.28
2022-09-18T15:30:40.002Z,89.62
2022-09-18T15:33:19.775Z,88.06
2022-09-18T15:35:54.398Z,85.13
2022-09-18T15:38:49.161Z,87.24
2022-09-18T15:41:43.388Z,86.49
2022-09-18T15:44:39.192Z,84.18
2022-09-18T15:47:38.457Z,80.76
2022-09-18T15:50:15.339Z,86.88
2022-09-18T15:53:06.008Z,91.37
2022-09-18T15:55:56.640Z,94.69
2022-09-18T15:58:42.965Z,94.48
2022-09-18T16:01:27.265Z,96.62
2022-09-18T16:04:24.473Z,99.73
2022-09-18T16:07:05.662Z,100.00
2022-09-18T16:09:40.373Z,100.00
2022-09-18T16:12:30.235Z,100.00
2022-09-18T16:15:20.046Z,100.00
2022-09-18T16:17:47.326Z,100.00
2022-09-18T16:20:58.282Z,100.00
2022-09-18T16:23:36.508Z,100.00
2022-09-18T16:26:27.904Z,100.00
2022-09-18T16:29:05.117Z,100.00
2022-09-18T16:31:37.690Z,100.00
2022-09-18T16:34:27.862Z,100.00
2022-09-18T16:36:56.490Z,100.00
2022-09-18T16:39:27.058Z,100.00
2022-09-18T16:41:54.805Z,100.00
2022-09-18T16:44:24.986Z,100.00
2022-09-18T16:47:00.467Z,100.00
2022-09-18T16:49:38.673Z,100.00
2022-09-18T16:52:06.348Z,100.00
2022-09-18T16:54:33.433Z,100.00
2022-09-18T16:57:10.902Z,100.00
2022-09-18T16:59:43.297Z,100.00
2022-09-18T17:02:17.926Z,100.00
2022-09-18T17:04:44.916Z,100.00
2022-09-18T17:07:12.571Z,100.00
2022-09-18T17:09:39.607Z,100.00
2022-09-18T17:12:10.254Z,100.00
2022-09-18T17:14:37.602Z,100.00
2022-09-18T17:17:06.048Z,100.00
2022-09-18T17:19:33.341Z,100.00
2022-09-18T17:22:00.387Z,100.00
2022-09-18T17:24:28.080Z,100.00
2022-09-18T17:26:55.337Z,100.00
2022-09-18T17:29:22.857Z,100.00
2022-09-18T17:31:50.106Z,100.00
2022-09-18T17:34:18.887Z,100.00
2022-09-18T17:36:46.544Z,100.00
2022-09-18T17:39:14.004Z,100.00
2022-09-18T17:41:42.829Z,100.00
2022-09-18T17:44:10.163Z,100.00
2022-09-18T17:46:37.240Z,100.00
2022-09-18T17:49:05.075Z,100.00
2022-09-18T17:51:33.364Z,100.00
2022-09-18T17:54:05.451Z,100.00
2022-09-18T17:56:33.938Z,100.00
2022-09-18T17:59:11.278Z,100.00
2022-09-18T18:01:47.262Z,100.00
2022-09-18T18:04:15.454Z,100.00
2022-09-18T18:06:42.779Z,100.00
2022-09-18T18:09:10.130Z,100.00
2022-09-18T18:11:38.432Z,100.00
2022-09-18T18:14:05.772Z,100.00
2022-09-18T18:16:34.900Z,100.00
2022-09-18T18:19:08.589Z,100.00
2022-09-18T18:21:36.280Z,100.00
2022-09-18T18:24:09.154Z,100.00
2022-09-18T18:26:40.125Z,100.00
2022-09-18T18:29:11.157Z,100.00
2022-09-18T18:31:42.099Z,100.00
2022-09-18T18:34:11.801Z,100.00
2022-09-18T18:36:43.428Z,100.00
2022-09-18T18:39:12.936Z,100.00
2022-09-18T18:41:41.065Z,100.00
2022-09-18T18:44:08.267Z,100.00
2022-09-18T18:46:37.793Z,100.00
2022-09-18T18:49:15.017Z,100.00
2022-09-18T18:51:47.717Z,100.00
2022-09-18T18:54:20.049Z,100.00
2022-09-18T18:56:48.796Z,100.00
2022-09-18T18:59:19.995Z,100.00
2022-09-18T19:01:47.724Z,100.00
2022-09-18T19:04:21.295Z,100.00
2022-09-18T19:06:49.439Z,100.00
2022-09-18T19:09:24.607Z,100.00
2022-09-18T19:11:53.975Z,100.00
2022-09-18T19:14:29.105Z,100.00
2022-09-18T19:16:57.854Z,100.00
2022-09-18T19:19:28.471Z,100.00
2022-09-18T19:25:44.579Z,100.00
2022-09-18T19:28:12.432Z,100.00
2022-09-18T19:30:40.013Z,100.00
2022-09-18T19:33:08.085Z,100.00
2022-09-18T19:35:35.876Z,100.00
2022-09-18T19:38:03.373Z,100.00
2022-09-18T19:40:36.791Z,100.00
2022-09-18T19:43:18.304Z,100.00
2022-09-18T19:45:48.491Z,100.00
2022-09-18T19:48:26.335Z,100.00
2022-09-18T19:50:53.880Z,100.00
2022-09-18T19:53:21.283Z,100.00
2022-09-18T19:55:49.050Z,100.00
2022-09-18T19:58:17.422Z,100.00
2022-09-18T20:00:45.818Z,100.00
2022-09-18T20:03:14.601Z,100.00
2022-09-18T20:05:43.356Z,100.00
2022-09-18T20:08:11.552Z,100.00
2022-09-18T20:10:40.752Z,100.00
2022-09-18T20:13:10.742Z,100.00
2022-09-18T20:15:37.712Z,100.00
2022-09-18T20:18:07.553Z,100.00
2022-09-18T20:20:37.457Z,100.00
2022-09-18T20:23:07.465Z,100.00
2022-09-18T20:25:35.587Z,100.00
2022-09-18T20:28:03.024Z,100.00
2022-09-18T20:30:30.141Z,100.00
2022-09-18T20:32:57.137Z,100.00
2022-09-18T20:35:24.292Z,100.00
2022-09-18T20:37:51.548Z,100.00
2022-09-18T20:40:18.941Z,100.00
2022-09-18T20:42:46.794Z,100.00
2022-09-18T20:45:13.754Z,100.00
2022-09-18T20:47:40.717Z,100.00
2022-09-18T20:50:13.927Z,100.00
2022-09-18T20:52:43.946Z,100.00
2022-09-18T20:55:17.395Z,100.00
2022-09-18T20:57:46.192Z,100.00
2022-09-18T21:00:17.180Z,100.00
2022-09-18T21:02:50.671Z,100.00
2022-09-18T21:05:17.768Z,100.00
2022-09-18T21:07:45.754Z,100.00
2022-09-18T21:10:14.823Z,100.00
2022-09-18T21:12:41.802Z,100.00
2022-09-18T21:15:16.173Z,100.00
2022-09-18T21:17:43.678Z,100.00
2022-09-18T21:20:12.178Z,100.00
2022-09-18T21:22:59.085Z,100.00
2022-09-18T21:25:30.672Z,100.00
2022-09-18T21:27:58.273Z,100.00
2022-09-18T21:30:26.790Z,100.00
2022-09-18T21:32:55.724Z,100.00
2022-09-18T21:35:22.938Z,100.00
2022-09-18T21:37:49.857Z,100.00
2022-09-18T21:40:17.009Z,100.00
2022-09-18T21:42:47.669Z,100.00
2022-09-18T21:45:19.583Z,100.00
2022-09-18T21:47:48.127Z,100.00
2022-09-18T21:50:15.978Z,100.00
2022-09-18T21:52:43.836Z,100.00
2022-09-18T21:55:11.154Z,100.00
2022-09-18T21:57:38.830Z,100.00
2022-09-18T22:00:09.774Z,100.00
2022-09-18T22:02:36.795Z,100.00
2022-09-18T22:05:12.301Z,100.00
2022-09-18T22:07:39.263Z,100.00
2022-09-18T22:10:07.460Z,100.00
2022-09-18T22:12:36.439Z,100.00
2022-09-18T22:15:03.662Z,100.00
2022-09-18T22:17:32.081Z,100.00
2022-09-18T22:19:59.035Z,100.00
2022-09-18T22:22:27.189Z,100.00
2022-09-18T22:24:54.022Z,100.00
2022-09-18T22:27:21.040Z,100.00
2022-09-18T22:29:47.985Z,100.00
2022-09-18T22:32:14.954Z,100.00
2022-09-18T22:34:42.048Z,100.00
2022-09-18T22:37:11.610Z,100.00
2022-09-18T22:39:38.592Z,100.00
2022-09-18T22:42:07.368Z,100.00
2022-09-18T22:44:34.641Z,100.00
2022-09-18T22:47:03.028Z,100.00
2022-09-18T22:49:30.045Z,100.00
2022-09-18T22:51:57.519Z,100.00
2022-09-18T22:54:26.549Z,100.00
2022-09-18T22:56:55.304Z,100.00
2022-09-18T22:59:26.534Z,100.00
2022-09-18T23:02:05.898Z,100.00
2022-09-18T23:04:35.908Z,100.00
2022-09-18T23:07:03.954Z,100.00
2022-09-18T23:09:31.325Z,100.00
2022-09-18T23:11:59.800Z,100.00
2022-09-18T23:14:31.427Z,100.00
2022-09-18T23:17:01.160Z,100.00
2022-09-18T23:19:35.008Z,100.00
2022-09-18T23:22:02.929Z,100.00
2022-09-18T23:24:31.371Z,100.00
2022-09-18T23:27:00.125Z,100.00
2022-09-18T23:29:31.819Z,100.00
2022-09-18T23:31:59.655Z,100.00
2022-09-18T23:34:33.766Z,100.00
2022-09-18T23:37:01.885Z,100.00
2022-09-18T23:39:32.647Z,100.00
2022-09-18T23:42:03.419Z,100.00
2022-09-18T23:44:32.229Z,100.00
2022-09-18T23:47:00.917Z,100.00
2022-09-18T23:49:30.193Z,100.00
2022-09-18T23:51:59.677Z,100.00
2022-09-18T23:54:32.229Z,100.00
2022-09-18T23:56:59.381Z,100.00
2022-09-18T23:59:27.655Z,100.00
